sensor_id;sensor_type;location;lat;lon;timestamp;temperature;humidity
47604;DHT22;33326;51.116;6.900;2022-12-18T00:00:09;-2.30;99.90
47604;DHT22;33326;51.116;6.900;2022-12-18T00:05:16;-2.40;99.90
47604;DHT22;33326;51.116;6.900;2022-12-18T00:10:18;-2.30;99.90
47604;DHT22;33326;51.116;6.900;2022-12-18T00:15:20;-2.40;99.90
47604;DHT22;33326;51.116;6.900;2022-12-18T00:20:31;-2.50;99.90
47604;DHT22;33326;51.116;6.900;2022-12-18T00:25:40;-2.50;99.90
47604;DHT22;33326;51.116;6.900;2022-12-18T00:30:42;-2.40;99.90
47604;DHT22;33326;51.116;6.900;2022-12-18T00:35:45;-2.60;99.90
47604;DHT22;33326;51.116;6.900;2022-12-18T00:40:48;-2.50;99.90
47604;DHT22;33326;51.116;6.900;2022-12-18T00:45:50;-2.50;99.90
47604;DHT22;33326;51.116;6.900;2022-12-18T00:50:54;-2.50;99.90
47604;DHT22;33326;51.116;6.900;2022-12-18T00:55:59;-2.50;99.90
47604;DHT22;33326;51.116;6.900;2022-12-18T01:01:03;-2.50;99.90
47604;DHT22;33326;51.116;6.900;2022-12-18T01:06:11;-2.50;99.90
47604;DHT22;33326;51.116;6.900;2022-12-18T01:11:15;-2.50;99.90
47604;DHT22;33326;51.116;6.900;2022-12-18T01:16:18;-2.50;99.90
47604;DHT22;33326;51.116;6.900;2022-12-18T01:21:23;-2.50;99.90
47604;DHT22;33326;51.116;6.900;2022-12-18T01:26:28;-2.50;99.90
47604;DHT22;33326;51.116;6.900;2022-12-18T01:31:32;-2.60;99.90
47604;DHT22;33326;51.116;6.900;2022-12-18T01:36:38;-2.60;99.90
47604;DHT22;33326;51.116;6.900;2022-12-18T01:41:41;-2.50;99.90
47604;DHT22;33326;51.116;6.900;2022-12-18T01:47:00;-2.50;99.90
47604;DHT22;33326;51.116;6.900;2022-12-18T01:52:03;-2.60;99.90
47604;DHT22;33326;51.116;6.900;2022-12-18T01:57:05;-2.60;99.90
47604;DHT22;33326;51.116;6.900;2022-12-18T02:02:08;-2.60;99.90
47604;DHT22;33326;51.116;6.900;2022-12-18T02:07:17;-2.60;99.90
47604;DHT22;33326;51.116;6.900;2022-12-18T02:12:29;-2.60;99.90
47604;DHT22;33326;51.116;6.900;2022-12-18T02:17:36;-2.60;99.90
47604;DHT22;33326;51.116;6.900;2022-12-18T02:22:48;-2.60;99.90
47604;DHT22;33326;51.116;6.900;2022-12-18T02:27:54;-2.60;99.90
47604;DHT22;33326;51.116;6.900;2022-12-18T02:33:01;-2.70;99.90
47604;DHT22;33326;51.116;6.900;2022-12-18T02:38:06;-2.60;99.90
47604;DHT22;33326;51.116;6.900;2022-12-18T02:43:15;-2.60;99.90
47604;DHT22;33326;51.116;6.900;2022-12-18T02:48:28;-2.70;99.90
47604;DHT22;33326;51.116;6.900;2022-12-18T02:53:35;-2.60;99.90
47604;DHT22;33326;51.116;6.900;2022-12-18T02:58:46;-2.60;99.90
47604;DHT22;33326;51.116;6.900;2022-12-18T03:04:06;-2.50;99.90
47604;DHT22;33326;51.116;6.900;2022-12-18T03:09:12;-2.50;99.90
47604;DHT22;33326;51.116;6.900;2022-12-18T03:14:19;-2.50;99.90
47604;DHT22;33326;51.116;6.900;2022-12-18T03:19:26;-2.50;99.90
47604;DHT22;33326;51.116;6.900;2022-12-18T03:24:33;-2.50;99.90
47604;DHT22;33326;51.116;6.900;2022-12-18T03:29:45;-2.50;99.90
47604;DHT22;33326;51.116;6.900;2022-12-18T03:34:51;-2.50;99.90
47604;DHT22;33326;51.116;6.900;2022-12-18T03:39:57;-2.50;99.90
47604;DHT22;33326;51.116;6.900;2022-12-18T03:45:06;-2.50;99.90
47604;DHT22;33326;51.116;6.900;2022-12-18T03:50:13;-2.50;99.90
47604;DHT22;33326;51.116;6.900;2022-12-18T03:55:21;-2.60;99.90
47604;DHT22;33326;51.116;6.900;2022-12-18T04:00:33;-2.60;99.90
47604;DHT22;33326;51.116;6.900;2022-12-18T04:05:44;-2.70;99.90
47604;DHT22;33326;51.116;6.900;2022-12-18T04:10:49;-2.70;99.90
47604;DHT22;33326;51.116;6.900;2022-12-18T04:15:54;-2.70;99.90
47604;DHT22;33326;51.116;6.900;2022-12-18T04:20:57;-2.70;99.90
47604;DHT22;33326;51.116;6.900;2022-12-18T04:25:59;-2.80;99.90
47604;DHT22;33326;51.116;6.900;2022-12-18T04:31:31;-2.80;99.90
47604;DHT22;33326;51.116;6.900;2022-12-18T04:36:33;-2.80;99.90
47604;DHT22;33326;51.116;6.900;2022-12-18T04:41:35;-2.80;99.90
47604;DHT22;33326;51.116;6.900;2022-12-18T04:46:39;-2.80;99.90
47604;DHT22;33326;51.116;6.900;2022-12-18T04:51:41;-2.80;99.90
47604;DHT22;33326;51.116;6.900;2022-12-18T04:56:44;-2.80;99.90
47604;DHT22;33326;51.116;6.900;2022-12-18T05:01:47;-2.90;99.90
47604;DHT22;33326;51.116;6.900;2022-12-18T05:06:55;-2.80;99.90
47604;DHT22;33326;51.116;6.900;2022-12-18T05:11:58;-2.80;99.90
47604;DHT22;33326;51.116;6.900;2022-12-18T05:17:02;-2.80;99.90
47604;DHT22;33326;51.116;6.900;2022-12-18T05:22:07;-2.90;99.90
47604;DHT22;33326;51.116;6.900;2022-12-18T05:27:09;-2.90;99.90
47604;DHT22;33326;51.116;6.900;2022-12-18T05:32:12;-2.90;99.90
47604;DHT22;33326;51.116;6.900;2022-12-18T05:37:14;-2.90;99.90
47604;DHT22;33326;51.116;6.900;2022-12-18T05:42:16;-2.90;99.90
47604;DHT22;33326;51.116;6.900;2022-12-18T05:47:19;-2.90;99.90
47604;DHT22;33326;51.116;6.900;2022-12-18T05:52:22;-2.90;99.90
47604;DHT22;33326;51.116;6.900;2022-12-18T05:57:24;-2.90;99.90
47604;DHT22;33326;51.116;6.900;2022-12-18T06:02:27;-2.90;99.90
47604;DHT22;33326;51.116;6.900;2022-12-18T06:07:31;-2.90;99.90
47604;DHT22;33326;51.116;6.900;2022-12-18T06:12:34;-2.90;99.90
47604;DHT22;33326;51.116;6.900;2022-12-18T06:17:37;-2.90;99.90
47604;DHT22;33326;51.116;6.900;2022-12-18T06:22:39;-2.90;99.90
47604;DHT22;33326;51.116;6.900;2022-12-18T06:27:43;-2.80;99.90
47604;DHT22;33326;51.116;6.900;2022-12-18T06:32:48;-2.80;99.90
47604;DHT22;33326;51.116;6.900;2022-12-18T06:37:50;-2.80;99.90
47604;DHT22;33326;51.116;6.900;2022-12-18T06:42:52;-2.80;99.90
47604;DHT22;33326;51.116;6.900;2022-12-18T06:47:55;-2.80;99.90
47604;DHT22;33326;51.116;6.900;2022-12-18T06:52:57;-2.80;99.90
47604;DHT22;33326;51.116;6.900;2022-12-18T06:58:00;-2.90;99.90
47604;DHT22;33326;51.116;6.900;2022-12-18T07:03:03;-2.90;99.90
47604;DHT22;33326;51.116;6.900;2022-12-18T07:08:05;-3.00;99.90
47604;DHT22;33326;51.116;6.900;2022-12-18T07:13:07;-3.00;99.90
47604;DHT22;33326;51.116;6.900;2022-12-18T07:18:11;-3.10;99.90
47604;DHT22;33326;51.116;6.900;2022-12-18T07:23:13;-3.10;99.90
47604;DHT22;33326;51.116;6.900;2022-12-18T07:28:15;-3.00;99.90
47604;DHT22;33326;51.116;6.900;2022-12-18T07:33:18;-3.00;99.90
47604;DHT22;33326;51.116;6.900;2022-12-18T07:38:21;-3.00;99.90
47604;DHT22;33326;51.116;6.900;2022-12-18T07:43:23;-3.00;99.90
47604;DHT22;33326;51.116;6.900;2022-12-18T07:48:27;-3.00;99.90
47604;DHT22;33326;51.116;6.900;2022-12-18T07:53:30;-3.00;99.90
47604;DHT22;33326;51.116;6.900;2022-12-18T07:58:34;-3.00;99.90
47604;DHT22;33326;51.116;6.900;2022-12-18T08:03:41;-3.00;99.90
47604;DHT22;33326;51.116;6.900;2022-12-18T08:08:43;-2.90;99.90
47604;DHT22;33326;51.116;6.900;2022-12-18T08:13:45;-3.00;99.90
47604;DHT22;33326;51.116;6.900;2022-12-18T08:18:48;-3.00;99.90
47604;DHT22;33326;51.116;6.900;2022-12-18T08:23:52;-2.90;99.90
47604;DHT22;33326;51.116;6.900;2022-12-18T08:28:58;-2.90;99.90
47604;DHT22;33326;51.116;6.900;2022-12-18T08:34:02;-2.80;99.90
47604;DHT22;33326;51.116;6.900;2022-12-18T08:39:05;-2.80;99.90
47604;DHT22;33326;51.116;6.900;2022-12-18T08:44:08;-2.70;99.90
47604;DHT22;33326;51.116;6.900;2022-12-18T08:49:35;-2.60;99.90
47604;DHT22;33326;51.116;6.900;2022-12-18T08:54:41;-2.60;99.90
47604;DHT22;33326;51.116;6.900;2022-12-18T08:59:43;-2.40;99.90
47604;DHT22;33326;51.116;6.900;2022-12-18T09:04:48;-2.30;99.90
47604;DHT22;33326;51.116;6.900;2022-12-18T09:09:50;-2.20;99.90
47604;DHT22;33326;51.116;6.900;2022-12-18T09:14:52;-2.10;99.90
47604;DHT22;33326;51.116;6.900;2022-12-18T09:20:04;-1.90;99.90
47604;DHT22;33326;51.116;6.900;2022-12-18T09:25:07;-1.80;99.90
47604;DHT22;33326;51.116;6.900;2022-12-18T09:30:10;-1.80;99.90
47604;DHT22;33326;51.116;6.900;2022-12-18T09:35:17;-1.70;99.90
47604;DHT22;33326;51.116;6.900;2022-12-18T09:40:22;-1.50;99.90
47604;DHT22;33326;51.116;6.900;2022-12-18T09:45:25;-1.40;99.90
47604;DHT22;33326;51.116;6.900;2022-12-18T09:50:32;-1.20;99.90
47604;DHT22;33326;51.116;6.900;2022-12-18T09:55:43;-1.20;99.90
47604;DHT22;33326;51.116;6.900;2022-12-18T10:00:50;-1.00;99.90
47604;DHT22;33326;51.116;6.900;2022-12-18T10:06:01;-0.90;99.90
47604;DHT22;33326;51.116;6.900;2022-12-18T10:11:27;-0.80;99.90
47604;DHT22;33326;51.116;6.900;2022-12-18T10:16:37;-0.70;99.90
47604;DHT22;33326;51.116;6.900;2022-12-18T10:21:50;-0.50;99.90
47604;DHT22;33326;51.116;6.900;2022-12-18T10:26:59;-0.30;99.90
47604;DHT22;33326;51.116;6.900;2022-12-18T10:32:24;-0.30;99.90
47604;DHT22;33326;51.116;6.900;2022-12-18T10:37:35;0.00;99.90
47604;DHT22;33326;51.116;6.900;2022-12-18T10:42:37;0.10;99.90
47604;DHT22;33326;51.116;6.900;2022-12-18T10:47:42;0.20;99.90
47604;DHT22;33326;51.116;6.900;2022-12-18T10:52:53;0.40;99.90
47604;DHT22;33326;51.116;6.900;2022-12-18T10:57:55;0.50;99.90
47604;DHT22;33326;51.116;6.900;2022-12-18T11:03:32;0.70;99.90
47604;DHT22;33326;51.116;6.900;2022-12-18T11:08:37;0.70;99.90
47604;DHT22;33326;51.116;6.900;2022-12-18T11:13:40;0.80;99.90
47604;DHT22;33326;51.116;6.900;2022-12-18T11:18:42;0.80;99.90
47604;DHT22;33326;51.116;6.900;2022-12-18T11:23:49;0.90;99.90
47604;DHT22;33326;51.116;6.900;2022-12-18T11:28:52;1.00;99.90
47604;DHT22;33326;51.116;6.900;2022-12-18T11:34:12;1.10;99.90
47604;DHT22;33326;51.116;6.900;2022-12-18T11:39:19;1.10;99.90
47604;DHT22;33326;51.116;6.900;2022-12-18T11:44:27;1.10;99.90
47604;DHT22;33326;51.116;6.900;2022-12-18T11:49:33;1.20;99.90
47604;DHT22;33326;51.116;6.900;2022-12-18T11:54:37;1.30;99.90
47604;DHT22;33326;51.116;6.900;2022-12-18T11:59:44;1.20;99.90
47604;DHT22;33326;51.116;6.900;2022-12-18T12:05:11;1.20;99.90
47604;DHT22;33326;51.116;6.900;2022-12-18T12:10:28;1.20;99.90
47604;DHT22;33326;51.116;6.900;2022-12-18T12:15:42;1.20;99.90
47604;DHT22;33326;51.116;6.900;2022-12-18T12:20:51;1.20;99.90
47604;DHT22;33326;51.116;6.900;2022-12-18T12:26:01;1.20;99.90
47604;DHT22;33326;51.116;6.900;2022-12-18T12:31:09;1.20;99.90
47604;DHT22;33326;51.116;6.900;2022-12-18T12:36:21;1.20;99.90
47604;DHT22;33326;51.116;6.900;2022-12-18T12:41:32;1.10;99.90
47604;DHT22;33326;51.116;6.900;2022-12-18T12:46:57;1.10;99.90
47604;DHT22;33326;51.116;6.900;2022-12-18T12:52:04;1.20;99.90
47604;DHT22;33326;51.116;6.900;2022-12-18T12:57:12;1.10;99.90
47604;DHT22;33326;51.116;6.900;2022-12-18T13:02:22;1.10;99.90
47604;DHT22;33326;51.116;6.900;2022-12-18T13:07:29;1.10;99.90
47604;DHT22;33326;51.116;6.900;2022-12-18T13:12:35;1.10;99.90
47604;DHT22;33326;51.116;6.900;2022-12-18T13:18:17;1.00;99.90
47604;DHT22;33326;51.116;6.900;2022-12-18T13:23:27;1.10;99.90
47604;DHT22;33326;51.116;6.900;2022-12-18T13:28:50;1.00;99.90
47604;DHT22;33326;51.116;6.900;2022-12-18T13:34:14;1.00;99.90
47604;DHT22;33326;51.116;6.900;2022-12-18T13:39:32;1.00;99.90
47604;DHT22;33326;51.116;6.900;2022-12-18T13:44:39;1.00;99.90
47604;DHT22;33326;51.116;6.900;2022-12-18T13:49:43;0.80;99.90
47604;DHT22;33326;51.116;6.900;2022-12-18T13:54:49;0.90;99.90
47604;DHT22;33326;51.116;6.900;2022-12-18T13:59:54;0.80;99.90
47604;DHT22;33326;51.116;6.900;2022-12-18T14:04:57;0.80;99.90
47604;DHT22;33326;51.116;6.900;2022-12-18T14:10:00;0.80;99.90
47604;DHT22;33326;51.116;6.900;2022-12-18T14:15:07;0.90;99.90
47604;DHT22;33326;51.116;6.900;2022-12-18T14:20:15;0.80;99.90
47604;DHT22;33326;51.116;6.900;2022-12-18T14:25:20;0.80;99.90
47604;DHT22;33326;51.116;6.900;2022-12-18T14:30:30;0.70;99.90
47604;DHT22;33326;51.116;6.900;2022-12-18T14:35:33;0.70;99.90
47604;DHT22;33326;51.116;6.900;2022-12-18T14:40:36;0.60;99.90
47604;DHT22;33326;51.116;6.900;2022-12-18T14:45:41;0.60;99.90
47604;DHT22;33326;51.116;6.900;2022-12-18T14:50:44;0.60;99.90
47604;DHT22;33326;51.116;6.900;2022-12-18T14:55:47;0.60;99.90
47604;DHT22;33326;51.116;6.900;2022-12-18T15:00:51;0.60;99.90
47604;DHT22;33326;51.116;6.900;2022-12-18T15:05:53;0.60;99.90
47604;DHT22;33326;51.116;6.900;2022-12-18T15:10:55;0.60;99.90
47604;DHT22;33326;51.116;6.900;2022-12-18T15:16:00;0.50;99.90
47604;DHT22;33326;51.116;6.900;2022-12-18T15:21:09;0.50;99.90
47604;DHT22;33326;51.116;6.900;2022-12-18T15:26:13;0.50;99.90
47604;DHT22;33326;51.116;6.900;2022-12-18T15:31:28;0.40;99.90
47604;DHT22;33326;51.116;6.900;2022-12-18T15:36:31;0.40;99.90
47604;DHT22;33326;51.116;6.900;2022-12-18T15:41:36;0.40;99.90
47604;DHT22;33326;51.116;6.900;2022-12-18T15:46:39;0.40;99.90
47604;DHT22;33326;51.116;6.900;2022-12-18T15:51:41;0.40;99.90
47604;DHT22;33326;51.116;6.900;2022-12-18T15:56:43;0.40;99.90
47604;DHT22;33326;51.116;6.900;2022-12-18T16:02:15;0.40;99.90
47604;DHT22;33326;51.116;6.900;2022-12-18T16:07:17;0.30;99.90
47604;DHT22;33326;51.116;6.900;2022-12-18T16:12:21;0.30;99.90
47604;DHT22;33326;51.116;6.900;2022-12-18T16:17:25;0.30;99.90
47604;DHT22;33326;51.116;6.900;2022-12-18T16:22:28;0.20;99.90
47604;DHT22;33326;51.116;6.900;2022-12-18T16:27:30;0.30;99.90
47604;DHT22;33326;51.116;6.900;2022-12-18T16:32:34;0.30;99.90
47604;DHT22;33326;51.116;6.900;2022-12-18T16:37:40;0.20;99.90
47604;DHT22;33326;51.116;6.900;2022-12-18T16:42:44;0.20;99.90
47604;DHT22;33326;51.116;6.900;2022-12-18T16:47:47;0.20;99.90
47604;DHT22;33326;51.116;6.900;2022-12-18T16:52:49;0.20;99.90
47604;DHT22;33326;51.116;6.900;2022-12-18T16:57:51;0.20;99.90
47604;DHT22;33326;51.116;6.900;2022-12-18T17:02:54;0.10;99.90
47604;DHT22;33326;51.116;6.900;2022-12-18T17:07:56;0.10;99.90
47604;DHT22;33326;51.116;6.900;2022-12-18T17:12:58;0.10;99.90
47604;DHT22;33326;51.116;6.900;2022-12-18T17:18:02;0.10;99.90
47604;DHT22;33326;51.116;6.900;2022-12-18T17:23:04;0.00;99.90
47604;DHT22;33326;51.116;6.900;2022-12-18T17:28:06;0.00;99.90
47604;DHT22;33326;51.116;6.900;2022-12-18T17:33:09;0.00;99.90
47604;DHT22;33326;51.116;6.900;2022-12-18T17:38:11;0.00;99.90
47604;DHT22;33326;51.116;6.900;2022-12-18T17:43:13;0.00;99.90
47604;DHT22;33326;51.116;6.900;2022-12-18T17:48:16;-0.10;99.90
47604;DHT22;33326;51.116;6.900;2022-12-18T17:53:18;-0.20;99.90
47604;DHT22;33326;51.116;6.900;2022-12-18T17:58:20;-0.20;99.90
47604;DHT22;33326;51.116;6.900;2022-12-18T18:03:23;-0.20;99.90
47604;DHT22;33326;51.116;6.900;2022-12-18T18:08:26;-0.20;99.90
47604;DHT22;33326;51.116;6.900;2022-12-18T18:13:28;-0.20;99.90
47604;DHT22;33326;51.116;6.900;2022-12-18T18:18:49;-0.20;99.90
47604;DHT22;33326;51.116;6.900;2022-12-18T18:23:51;-0.20;99.90
47604;DHT22;33326;51.116;6.900;2022-12-18T18:28:53;-0.20;99.90
47604;DHT22;33326;51.116;6.900;2022-12-18T18:33:56;-0.20;99.90
47604;DHT22;33326;51.116;6.900;2022-12-18T18:38:58;-0.20;99.90
47604;DHT22;33326;51.116;6.900;2022-12-18T18:44:00;-0.20;99.90
47604;DHT22;33326;51.116;6.900;2022-12-18T18:49:04;-0.20;99.90
47604;DHT22;33326;51.116;6.900;2022-12-18T18:54:07;-0.20;99.90
47604;DHT22;33326;51.116;6.900;2022-12-18T18:59:09;-0.20;99.90
47604;DHT22;33326;51.116;6.900;2022-12-18T19:04:12;-0.20;99.90
47604;DHT22;33326;51.116;6.900;2022-12-18T19:09:14;-0.20;99.90
47604;DHT22;33326;51.116;6.900;2022-12-18T19:14:16;-0.20;99.90
47604;DHT22;33326;51.116;6.900;2022-12-18T19:19:19;-0.10;99.90
47604;DHT22;33326;51.116;6.900;2022-12-18T19:24:21;-0.10;99.90
47604;DHT22;33326;51.116;6.900;2022-12-18T19:29:23;-0.10;99.90
47604;DHT22;33326;51.116;6.900;2022-12-18T19:34:26;-0.10;99.90
47604;DHT22;33326;51.116;6.900;2022-12-18T19:39:28;-0.10;99.90
47604;DHT22;33326;51.116;6.900;2022-12-18T19:44:30;0.00;99.90
47604;DHT22;33326;51.116;6.900;2022-12-18T19:49:33;0.00;99.90
47604;DHT22;33326;51.116;6.900;2022-12-18T19:54:36;0.10;99.90
47604;DHT22;33326;51.116;6.900;2022-12-18T19:59:38;0.10;99.90
47604;DHT22;33326;51.116;6.900;2022-12-18T20:04:41;0.10;99.90
47604;DHT22;33326;51.116;6.900;2022-12-18T20:09:43;0.20;99.90
47604;DHT22;33326;51.116;6.900;2022-12-18T20:14:45;0.30;99.90
47604;DHT22;33326;51.116;6.900;2022-12-18T20:19:48;0.20;99.90
47604;DHT22;33326;51.116;6.900;2022-12-18T20:24:50;0.30;99.90
47604;DHT22;33326;51.116;6.900;2022-12-18T20:29:52;0.30;99.90
47604;DHT22;33326;51.116;6.900;2022-12-18T20:34:55;0.30;99.90
47604;DHT22;33326;51.116;6.900;2022-12-18T20:39:57;0.30;99.90
47604;DHT22;33326;51.116;6.900;2022-12-18T20:44:59;0.40;99.90
47604;DHT22;33326;51.116;6.900;2022-12-18T20:50:03;0.40;99.90
47604;DHT22;33326;51.116;6.900;2022-12-18T20:55:06;0.40;99.90
47604;DHT22;33326;51.116;6.900;2022-12-18T21:00:09;0.50;99.90
47604;DHT22;33326;51.116;6.900;2022-12-18T21:05:13;0.50;99.90
47604;DHT22;33326;51.116;6.900;2022-12-18T21:10:15;0.60;99.90
47604;DHT22;33326;51.116;6.900;2022-12-18T21:15:17;0.50;99.90
47604;DHT22;33326;51.116;6.900;2022-12-18T21:20:20;0.60;99.90
47604;DHT22;33326;51.116;6.900;2022-12-18T21:25:22;0.70;99.90
47604;DHT22;33326;51.116;6.900;2022-12-18T21:30:24;0.70;99.90
47604;DHT22;33326;51.116;6.900;2022-12-18T21:35:27;0.70;99.90
47604;DHT22;33326;51.116;6.900;2022-12-18T21:40:29;0.70;99.90
47604;DHT22;33326;51.116;6.900;2022-12-18T21:45:31;0.70;99.90
47604;DHT22;33326;51.116;6.900;2022-12-18T21:50:34;0.70;99.90
47604;DHT22;33326;51.116;6.900;2022-12-18T21:55:36;0.80;99.90
47604;DHT22;33326;51.116;6.900;2022-12-18T22:00:38;0.90;99.90
47604;DHT22;33326;51.116;6.900;2022-12-18T22:05:41;0.80;99.90
47604;DHT22;33326;51.116;6.900;2022-12-18T22:10:43;0.90;99.90
47604;DHT22;33326;51.116;6.900;2022-12-18T22:15:44;0.90;99.90
47604;DHT22;33326;51.116;6.900;2022-12-18T22:20:48;0.80;99.90
47604;DHT22;33326;51.116;6.900;2022-12-18T22:25:49;0.80;99.90
47604;DHT22;33326;51.116;6.900;2022-12-18T22:30:51;0.80;99.90
47604;DHT22;33326;51.116;6.900;2022-12-18T22:35:54;0.90;99.90
47604;DHT22;33326;51.116;6.900;2022-12-18T22:40:56;0.90;99.90
47604;DHT22;33326;51.116;6.900;2022-12-18T22:45:58;1.00;99.90
47604;DHT22;33326;51.116;6.900;2022-12-18T22:51:01;1.00;99.90
47604;DHT22;33326;51.116;6.900;2022-12-18T22:56:03;1.00;99.90
47604;DHT22;33326;51.116;6.900;2022-12-18T23:01:06;1.10;99.90
47604;DHT22;33326;51.116;6.900;2022-12-18T23:06:10;1.00;99.90
47604;DHT22;33326;51.116;6.900;2022-12-18T23:11:13;1.00;99.90
47604;DHT22;33326;51.116;6.900;2022-12-18T23:16:19;1.10;99.90
47604;DHT22;33326;51.116;6.900;2022-12-18T23:21:23;1.10;99.90
47604;DHT22;33326;51.116;6.900;2022-12-18T23:26:25;1.10;99.90
47604;DHT22;33326;51.116;6.900;2022-12-18T23:31:29;1.10;99.90
47604;DHT22;33326;51.116;6.900;2022-12-18T23:36:33;1.10;99.90
47604;DHT22;33326;51.116;6.900;2022-12-18T23:41:37;1.20;99.90
47604;DHT22;33326;51.116;6.900;2022-12-18T23:46:42;1.20;99.90
47604;DHT22;33326;51.116;6.900;2022-12-18T23:51:57;1.20;99.90
47604;DHT22;33326;51.116;6.900;2022-12-18T23:57:01;1.30;99.90
